sensor_id;sensor_type;location;lat;lon;timestamp;temperature;humidity
69595;DHT22;56800;52.142;5.364;2022-07-26T00:02:07;20.20;67.60
69595;DHT22;56800;52.142;5.364;2022-07-26T00:04:34;20.20;67.70
69595;DHT22;56800;52.142;5.364;2022-07-26T00:07:00;20.20;67.80
69595;DHT22;56800;52.142;5.364;2022-07-26T00:09:27;20.10;67.90
69595;DHT22;56800;52.142;5.364;2022-07-26T00:11:54;20.10;68.00
69595;DHT22;56800;52.142;5.364;2022-07-26T00:14:21;20.10;68.10
69595;DHT22;56800;52.142;5.364;2022-07-26T00:16:48;20.10;68.20
69595;DHT22;56800;52.142;5.364;2022-07-26T00:19:15;20.10;68.30
69595;DHT22;56800;52.142;5.364;2022-07-26T00:21:42;20.10;68.30
69595;DHT22;56800;52.142;5.364;2022-07-26T00:24:08;20.10;68.40
69595;DHT22;56800;52.142;5.364;2022-07-26T00:26:35;20.10;68.60
69595;DHT22;56800;52.142;5.364;2022-07-26T00:29:03;20.10;68.70
69595;DHT22;56800;52.142;5.364;2022-07-26T00:31:31;20.10;68.80
69595;DHT22;56800;52.142;5.364;2022-07-26T00:33:58;20.10;68.80
69595;DHT22;56800;52.142;5.364;2022-07-26T00:36:25;20.00;68.80
69595;DHT22;56800;52.142;5.364;2022-07-26T00:38:54;20.10;68.90
69595;DHT22;56800;52.142;5.364;2022-07-26T00:41:21;20.10;69.00
69595;DHT22;56800;52.142;5.364;2022-07-26T00:43:58;20.00;69.00
69595;DHT22;56800;52.142;5.364;2022-07-26T00:46:25;20.00;69.10
69595;DHT22;56800;52.142;5.364;2022-07-26T00:48:52;20.00;69.10
69595;DHT22;56800;52.142;5.364;2022-07-26T00:51:20;20.10;69.20
69595;DHT22;56800;52.142;5.364;2022-07-26T00:53:47;20.00;69.20
69595;DHT22;56800;52.142;5.364;2022-07-26T00:56:15;20.10;69.40
69595;DHT22;56800;52.142;5.364;2022-07-26T00:58:43;20.10;69.50
69595;DHT22;56800;52.142;5.364;2022-07-26T01:01:10;20.10;69.60
69595;DHT22;56800;52.142;5.364;2022-07-26T01:03:37;20.10;69.60
69595;DHT22;56800;52.142;5.364;2022-07-26T01:06:05;20.10;69.60
69595;DHT22;56800;52.142;5.364;2022-07-26T01:08:32;20.10;69.50
69595;DHT22;56800;52.142;5.364;2022-07-26T01:10:59;20.10;69.70
69595;DHT22;56800;52.142;5.364;2022-07-26T01:13:26;20.10;69.50
69595;DHT22;56800;52.142;5.364;2022-07-26T01:16:00;20.10;69.50
69595;DHT22;56800;52.142;5.364;2022-07-26T01:18:26;20.10;69.60
69595;DHT22;56800;52.142;5.364;2022-07-26T01:20:53;20.10;69.50
69595;DHT22;56800;52.142;5.364;2022-07-26T01:23:21;20.10;69.50
69595;DHT22;56800;52.142;5.364;2022-07-26T01:25:48;20.20;69.60
69595;DHT22;56800;52.142;5.364;2022-07-26T01:28:17;20.10;69.50
69595;DHT22;56800;52.142;5.364;2022-07-26T01:30:46;20.10;69.50
69595;DHT22;56800;52.142;5.364;2022-07-26T01:33:13;20.10;69.50
69595;DHT22;56800;52.142;5.364;2022-07-26T01:35:40;20.10;69.50
69595;DHT22;56800;52.142;5.364;2022-07-26T01:38:07;20.10;69.30
69595;DHT22;56800;52.142;5.364;2022-07-26T01:40:33;20.10;69.10
69595;DHT22;56800;52.142;5.364;2022-07-26T01:43:00;20.10;69.10
69595;DHT22;56800;52.142;5.364;2022-07-26T01:45:27;20.10;69.00
69595;DHT22;56800;52.142;5.364;2022-07-26T01:47:54;20.10;68.90
69595;DHT22;56800;52.142;5.364;2022-07-26T01:50:21;20.10;68.80
69595;DHT22;56800;52.142;5.364;2022-07-26T01:52:47;20.00;68.70
69595;DHT22;56800;52.142;5.364;2022-07-26T01:55:14;20.00;68.50
69595;DHT22;56800;52.142;5.364;2022-07-26T01:57:44;20.00;68.40
69595;DHT22;56800;52.142;5.364;2022-07-26T02:00:11;20.00;68.40
69595;DHT22;56800;52.142;5.364;2022-07-26T02:02:38;20.00;68.30
69595;DHT22;56800;52.142;5.364;2022-07-26T02:05:05;20.00;68.20
69595;DHT22;56800;52.142;5.364;2022-07-26T02:07:39;20.00;68.20
69595;DHT22;56800;52.142;5.364;2022-07-26T02:10:11;20.00;68.20
69595;DHT22;56800;52.142;5.364;2022-07-26T02:12:40;20.00;68.00
69595;DHT22;56800;52.142;5.364;2022-07-26T02:15:08;20.00;67.90
69595;DHT22;56800;52.142;5.364;2022-07-26T02:17:35;20.00;67.80
69595;DHT22;56800;52.142;5.364;2022-07-26T02:20:03;20.00;67.70
69595;DHT22;56800;52.142;5.364;2022-07-26T02:22:30;20.00;67.70
69595;DHT22;56800;52.142;5.364;2022-07-26T02:24:57;19.90;67.60
69595;DHT22;56800;52.142;5.364;2022-07-26T02:27:30;19.90;67.50
69595;DHT22;56800;52.142;5.364;2022-07-26T02:29:57;19.90;67.50
69595;DHT22;56800;52.142;5.364;2022-07-26T02:32:24;19.90;67.50
69595;DHT22;56800;52.142;5.364;2022-07-26T02:34:50;19.90;67.50
69595;DHT22;56800;52.142;5.364;2022-07-26T02:37:17;19.90;67.50
69595;DHT22;56800;52.142;5.364;2022-07-26T02:39:44;19.80;67.40
69595;DHT22;56800;52.142;5.364;2022-07-26T02:42:10;19.80;67.40
69595;DHT22;56800;52.142;5.364;2022-07-26T02:44:37;19.80;67.40
69595;DHT22;56800;52.142;5.364;2022-07-26T02:47:04;19.80;67.40
69595;DHT22;56800;52.142;5.364;2022-07-26T02:49:31;19.80;67.40
69595;DHT22;56800;52.142;5.364;2022-07-26T02:51:57;19.80;67.40
69595;DHT22;56800;52.142;5.364;2022-07-26T02:54:24;19.70;67.40
69595;DHT22;56800;52.142;5.364;2022-07-26T02:56:51;19.80;68.30
69595;DHT22;56800;52.142;5.364;2022-07-26T02:59:18;19.70;67.40
69595;DHT22;56800;52.142;5.364;2022-07-26T03:01:44;19.70;67.50
69595;DHT22;56800;52.142;5.364;2022-07-26T03:04:11;19.70;67.50
69595;DHT22;56800;52.142;5.364;2022-07-26T03:06:38;19.70;67.50
69595;DHT22;56800;52.142;5.364;2022-07-26T03:09:05;19.70;67.50
69595;DHT22;56800;52.142;5.364;2022-07-26T03:11:39;19.70;67.60
69595;DHT22;56800;52.142;5.364;2022-07-26T03:14:08;19.60;67.60
69595;DHT22;56800;52.142;5.364;2022-07-26T03:16:37;19.60;67.70
69595;DHT22;56800;52.142;5.364;2022-07-26T03:19:04;19.60;67.70
69595;DHT22;56800;52.142;5.364;2022-07-26T03:21:30;19.50;67.80
69595;DHT22;56800;52.142;5.364;2022-07-26T03:23:57;19.50;67.90
69595;DHT22;56800;52.142;5.364;2022-07-26T03:26:24;19.50;67.90
69595;DHT22;56800;52.142;5.364;2022-07-26T03:28:50;19.40;68.00
69595;DHT22;56800;52.142;5.364;2022-07-26T03:31:18;19.40;68.10
69595;DHT22;56800;52.142;5.364;2022-07-26T03:33:45;19.40;68.20
69595;DHT22;56800;52.142;5.364;2022-07-26T03:36:11;19.30;68.20
69595;DHT22;56800;52.142;5.364;2022-07-26T03:38:41;19.40;68.40
69595;DHT22;56800;52.142;5.364;2022-07-26T03:41:08;19.30;68.30
69595;DHT22;56800;52.142;5.364;2022-07-26T03:43:39;19.30;68.40
69595;DHT22;56800;52.142;5.364;2022-07-26T03:46:05;19.30;68.60
69595;DHT22;56800;52.142;5.364;2022-07-26T03:48:32;19.30;68.60
69595;DHT22;56800;52.142;5.364;2022-07-26T03:50:59;19.20;68.60
69595;DHT22;56800;52.142;5.364;2022-07-26T03:53:26;19.10;68.70
69595;DHT22;56800;52.142;5.364;2022-07-26T03:55:53;19.20;68.70
69595;DHT22;56800;52.142;5.364;2022-07-26T03:58:39;19.10;68.70
69595;DHT22;56800;52.142;5.364;2022-07-26T04:01:05;19.10;68.70
69595;DHT22;56800;52.142;5.364;2022-07-26T04:03:32;19.10;68.80
69595;DHT22;56800;52.142;5.364;2022-07-26T04:05:59;19.00;68.90
69595;DHT22;56800;52.142;5.364;2022-07-26T04:08:32;19.00;69.00
69595;DHT22;56800;52.142;5.364;2022-07-26T04:11:03;19.00;69.20
69595;DHT22;56800;52.142;5.364;2022-07-26T04:13:29;19.00;69.20
69595;DHT22;56800;52.142;5.364;2022-07-26T04:15:56;19.00;69.30
69595;DHT22;56800;52.142;5.364;2022-07-26T04:18:23;18.90;69.40
69595;DHT22;56800;52.142;5.364;2022-07-26T04:20:50;18.90;69.50
69595;DHT22;56800;52.142;5.364;2022-07-26T04:23:17;18.90;69.60
69595;DHT22;56800;52.142;5.364;2022-07-26T04:25:44;18.90;69.70
69595;DHT22;56800;52.142;5.364;2022-07-26T04:28:11;18.90;69.70
69595;DHT22;56800;52.142;5.364;2022-07-26T04:30:38;18.80;69.80
69595;DHT22;56800;52.142;5.364;2022-07-26T04:33:05;18.80;69.90
69595;DHT22;56800;52.142;5.364;2022-07-26T04:35:32;18.80;70.00
69595;DHT22;56800;52.142;5.364;2022-07-26T04:37:59;18.80;69.90
69595;DHT22;56800;52.142;5.364;2022-07-26T04:40:27;18.80;70.00
69595;DHT22;56800;52.142;5.364;2022-07-26T04:42:59;18.80;70.80
69595;DHT22;56800;52.142;5.364;2022-07-26T04:45:28;18.80;70.10
69595;DHT22;56800;52.142;5.364;2022-07-26T04:47:55;18.80;70.20
69595;DHT22;56800;52.142;5.364;2022-07-26T04:50:23;18.80;70.30
69595;DHT22;56800;52.142;5.364;2022-07-26T04:52:50;18.80;70.40
69595;DHT22;56800;52.142;5.364;2022-07-26T04:55:17;18.80;70.50
69595;DHT22;56800;52.142;5.364;2022-07-26T04:57:45;18.80;70.50
69595;DHT22;56800;52.142;5.364;2022-07-26T05:00:14;18.90;70.60
69595;DHT22;56800;52.142;5.364;2022-07-26T05:02:50;18.90;70.60
69595;DHT22;56800;52.142;5.364;2022-07-26T05:05:17;18.90;70.60
69595;DHT22;56800;52.142;5.364;2022-07-26T05:07:46;18.90;70.60
69595;DHT22;56800;52.142;5.364;2022-07-26T05:10:14;19.00;70.60
69595;DHT22;56800;52.142;5.364;2022-07-26T05:12:41;19.00;70.60
69595;DHT22;56800;52.142;5.364;2022-07-26T05:15:09;19.00;70.60
69595;DHT22;56800;52.142;5.364;2022-07-26T05:17:40;19.00;70.60
69595;DHT22;56800;52.142;5.364;2022-07-26T05:20:10;19.00;70.60
69595;DHT22;56800;52.142;5.364;2022-07-26T05:22:37;19.00;70.70
69595;DHT22;56800;52.142;5.364;2022-07-26T05:25:05;19.00;70.80
69595;DHT22;56800;52.142;5.364;2022-07-26T05:27:32;19.00;70.80
69595;DHT22;56800;52.142;5.364;2022-07-26T05:29:59;19.00;71.00
69595;DHT22;56800;52.142;5.364;2022-07-26T05:32:30;18.90;71.20
69595;DHT22;56800;52.142;5.364;2022-07-26T05:35:05;18.90;71.50
69595;DHT22;56800;52.142;5.364;2022-07-26T05:37:37;18.80;71.80
69595;DHT22;56800;52.142;5.364;2022-07-26T05:40:05;18.70;72.20
69595;DHT22;56800;52.142;5.364;2022-07-26T05:42:34;18.70;72.40
69595;DHT22;56800;52.142;5.364;2022-07-26T05:45:06;18.60;73.30
69595;DHT22;56800;52.142;5.364;2022-07-26T05:47:35;18.50;73.00
69595;DHT22;56800;52.142;5.364;2022-07-26T05:50:46;18.50;73.20
69595;DHT22;56800;52.142;5.364;2022-07-26T05:53:56;18.40;73.30
69595;DHT22;56800;52.142;5.364;2022-07-26T05:57:14;18.40;73.50
69595;DHT22;56800;52.142;5.364;2022-07-26T06:00:44;18.30;73.60
69595;DHT22;56800;52.142;5.364;2022-07-26T06:03:44;18.30;74.00
69595;DHT22;56800;52.142;5.364;2022-07-26T06:06:24;18.30;74.10
69595;DHT22;56800;52.142;5.364;2022-07-26T06:08:52;18.30;74.30
69595;DHT22;56800;52.142;5.364;2022-07-26T06:11:36;18.30;74.30
69595;DHT22;56800;52.142;5.364;2022-07-26T06:14:10;18.40;74.30
69595;DHT22;56800;52.142;5.364;2022-07-26T06:16:41;18.30;74.30
69595;DHT22;56800;52.142;5.364;2022-07-26T06:19:07;18.40;74.30
69595;DHT22;56800;52.142;5.364;2022-07-26T06:21:34;18.40;74.30
69595;DHT22;56800;52.142;5.364;2022-07-26T06:24:01;18.40;74.70
69595;DHT22;56800;52.142;5.364;2022-07-26T06:26:28;18.40;74.80
69595;DHT22;56800;52.142;5.364;2022-07-26T06:28:55;18.40;74.90
69595;DHT22;56800;52.142;5.364;2022-07-26T06:31:21;18.40;75.00
69595;DHT22;56800;52.142;5.364;2022-07-26T06:33:48;18.40;75.00
69595;DHT22;56800;52.142;5.364;2022-07-26T06:36:16;18.40;75.10
69595;DHT22;56800;52.142;5.364;2022-07-26T06:38:43;18.50;75.20
69595;DHT22;56800;52.142;5.364;2022-07-26T06:41:10;18.40;75.20
69595;DHT22;56800;52.142;5.364;2022-07-26T06:43:37;18.40;75.40
69595;DHT22;56800;52.142;5.364;2022-07-26T06:46:03;18.50;75.40
69595;DHT22;56800;52.142;5.364;2022-07-26T06:48:30;18.50;75.50
69595;DHT22;56800;52.142;5.364;2022-07-26T06:51:05;18.50;75.50
69595;DHT22;56800;52.142;5.364;2022-07-26T06:54:02;18.50;75.70
69595;DHT22;56800;52.142;5.364;2022-07-26T06:57:01;18.50;75.60
69595;DHT22;56800;52.142;5.364;2022-07-26T06:59:41;18.50;75.40
69595;DHT22;56800;52.142;5.364;2022-07-26T07:02:15;18.50;75.50
69595;DHT22;56800;52.142;5.364;2022-07-26T07:04:42;18.50;75.50
69595;DHT22;56800;52.142;5.364;2022-07-26T07:07:09;18.50;75.50
69595;DHT22;56800;52.142;5.364;2022-07-26T07:09:37;18.50;75.50
69595;DHT22;56800;52.142;5.364;2022-07-26T07:12:05;18.50;75.50
69595;DHT22;56800;52.142;5.364;2022-07-26T07:14:36;18.50;75.40
69595;DHT22;56800;52.142;5.364;2022-07-26T07:17:03;18.50;75.40
69595;DHT22;56800;52.142;5.364;2022-07-26T07:19:39;18.60;75.50
69595;DHT22;56800;52.142;5.364;2022-07-26T07:22:06;18.60;75.40
69595;DHT22;56800;52.142;5.364;2022-07-26T07:24:37;18.60;75.30
69595;DHT22;56800;52.142;5.364;2022-07-26T07:27:04;18.50;75.20
69595;DHT22;56800;52.142;5.364;2022-07-26T07:29:32;18.60;75.30
69595;DHT22;56800;52.142;5.364;2022-07-26T07:31:59;18.50;75.30
69595;DHT22;56800;52.142;5.364;2022-07-26T07:34:29;18.60;75.40
69595;DHT22;56800;52.142;5.364;2022-07-26T07:36:56;18.60;75.00
69595;DHT22;56800;52.142;5.364;2022-07-26T07:39:24;18.50;74.70
69595;DHT22;56800;52.142;5.364;2022-07-26T07:42:00;18.50;74.70
69595;DHT22;56800;52.142;5.364;2022-07-26T07:44:27;18.50;74.60
69595;DHT22;56800;52.142;5.364;2022-07-26T07:46:57;18.50;74.70
69595;DHT22;56800;52.142;5.364;2022-07-26T07:49:25;18.50;74.70
69595;DHT22;56800;52.142;5.364;2022-07-26T07:51:57;18.50;74.70
69595;DHT22;56800;52.142;5.364;2022-07-26T07:54:25;18.60;74.80
69595;DHT22;56800;52.142;5.364;2022-07-26T07:56:52;18.60;74.80
69595;DHT22;56800;52.142;5.364;2022-07-26T07:59:22;18.60;74.70
69595;DHT22;56800;52.142;5.364;2022-07-26T08:01:49;18.70;74.50
69595;DHT22;56800;52.142;5.364;2022-07-26T08:04:16;18.70;74.50
69595;DHT22;56800;52.142;5.364;2022-07-26T08:06:43;18.70;74.30
69595;DHT22;56800;52.142;5.364;2022-07-26T08:09:16;18.70;74.20
69595;DHT22;56800;52.142;5.364;2022-07-26T08:11:43;18.70;74.00
69595;DHT22;56800;52.142;5.364;2022-07-26T08:14:10;18.70;73.80
69595;DHT22;56800;52.142;5.364;2022-07-26T08:16:38;18.70;73.60
69595;DHT22;56800;52.142;5.364;2022-07-26T08:19:06;18.80;73.60
69595;DHT22;56800;52.142;5.364;2022-07-26T08:21:34;18.80;73.50
69595;DHT22;56800;52.142;5.364;2022-07-26T08:24:01;18.80;73.40
69595;DHT22;56800;52.142;5.364;2022-07-26T08:26:28;18.80;73.50
69595;DHT22;56800;52.142;5.364;2022-07-26T08:28:54;18.90;73.40
69595;DHT22;56800;52.142;5.364;2022-07-26T08:31:26;18.90;73.40
69595;DHT22;56800;52.142;5.364;2022-07-26T08:33:54;19.00;73.30
69595;DHT22;56800;52.142;5.364;2022-07-26T08:36:21;19.10;73.50
69595;DHT22;56800;52.142;5.364;2022-07-26T08:38:48;19.10;73.20
69595;DHT22;56800;52.142;5.364;2022-07-26T08:41:19;19.20;72.90
69595;DHT22;56800;52.142;5.364;2022-07-26T08:43:46;19.10;72.50
69595;DHT22;56800;52.142;5.364;2022-07-26T08:46:25;19.10;72.20
69595;DHT22;56800;52.142;5.364;2022-07-26T08:48:56;19.10;72.10
69595;DHT22;56800;52.142;5.364;2022-07-26T08:51:25;19.10;71.90
69595;DHT22;56800;52.142;5.364;2022-07-26T08:53:57;19.00;72.10
69595;DHT22;56800;52.142;5.364;2022-07-26T08:56:32;19.10;72.10
69595;DHT22;56800;52.142;5.364;2022-07-26T08:59:11;19.10;72.30
69595;DHT22;56800;52.142;5.364;2022-07-26T09:01:57;19.20;72.40
69595;DHT22;56800;52.142;5.364;2022-07-26T09:04:30;19.20;72.60
69595;DHT22;56800;52.142;5.364;2022-07-26T09:07:05;19.30;72.30
69595;DHT22;56800;52.142;5.364;2022-07-26T09:09:34;19.40;71.80
69595;DHT22;56800;52.142;5.364;2022-07-26T09:12:18;19.50;71.50
69595;DHT22;56800;52.142;5.364;2022-07-26T09:14:46;19.50;70.90
69595;DHT22;56800;52.142;5.364;2022-07-26T09:17:43;19.60;70.70
69595;DHT22;56800;52.142;5.364;2022-07-26T09:20:27;19.50;70.50
69595;DHT22;56800;52.142;5.364;2022-07-26T09:23:10;19.50;70.30
69595;DHT22;56800;52.142;5.364;2022-07-26T09:25:45;19.50;69.90
69595;DHT22;56800;52.142;5.364;2022-07-26T09:28:29;19.40;69.80
69595;DHT22;56800;52.142;5.364;2022-07-26T09:31:01;19.40;70.00
69595;DHT22;56800;52.142;5.364;2022-07-26T09:33:45;19.30;69.90
69595;DHT22;56800;52.142;5.364;2022-07-26T09:36:15;19.30;70.10
69595;DHT22;56800;52.142;5.364;2022-07-26T09:38:55;19.30;69.80
69595;DHT22;56800;52.142;5.364;2022-07-26T09:41:34;19.30;70.10
69595;DHT22;56800;52.142;5.364;2022-07-26T09:44:18;19.30;69.90
69595;DHT22;56800;52.142;5.364;2022-07-26T09:46:56;19.40;69.60
69595;DHT22;56800;52.142;5.364;2022-07-26T09:49:25;19.30;69.40
69595;DHT22;56800;52.142;5.364;2022-07-26T09:52:21;19.30;69.50
69595;DHT22;56800;52.142;5.364;2022-07-26T09:54:48;19.20;69.70
69595;DHT22;56800;52.142;5.364;2022-07-26T09:57:17;19.20;69.70
69595;DHT22;56800;52.142;5.364;2022-07-26T09:59:45;19.20;69.70
69595;DHT22;56800;52.142;5.364;2022-07-26T10:02:12;19.20;69.70
69595;DHT22;56800;52.142;5.364;2022-07-26T10:04:40;19.20;69.40
69595;DHT22;56800;52.142;5.364;2022-07-26T10:07:09;19.30;69.20
69595;DHT22;56800;52.142;5.364;2022-07-26T10:09:56;19.30;69.20
69595;DHT22;56800;52.142;5.364;2022-07-26T10:12:25;19.30;69.70
69595;DHT22;56800;52.142;5.364;2022-07-26T10:14:56;19.40;69.50
69595;DHT22;56800;52.142;5.364;2022-07-26T10:19:59;19.50;69.30
69595;DHT22;56800;52.142;5.364;2022-07-26T10:22:31;19.50;68.40
69595;DHT22;56800;52.142;5.364;2022-07-26T10:27:49;19.60;67.50
69595;DHT22;56800;52.142;5.364;2022-07-26T10:38:08;19.80;66.20
69595;DHT22;56800;52.142;5.364;2022-07-26T10:40:36;19.80;66.10
69595;DHT22;56800;52.142;5.364;2022-07-26T10:43:11;19.90;65.80
69595;DHT22;56800;52.142;5.364;2022-07-26T10:49:16;19.90;65.00
69595;DHT22;56800;52.142;5.364;2022-07-26T10:51:44;19.80;65.20
69595;DHT22;56800;52.142;5.364;2022-07-26T10:54:11;19.80;65.60
69595;DHT22;56800;52.142;5.364;2022-07-26T10:56:48;19.70;65.80
69595;DHT22;56800;52.142;5.364;2022-07-26T10:59:30;19.70;65.80
69595;DHT22;56800;52.142;5.364;2022-07-26T11:02:20;19.80;65.70
69595;DHT22;56800;52.142;5.364;2022-07-26T11:05:08;19.80;66.20
69595;DHT22;56800;52.142;5.364;2022-07-26T11:10:20;20.20;65.80
69595;DHT22;56800;52.142;5.364;2022-07-26T11:15:39;20.40;64.80
69595;DHT22;56800;52.142;5.364;2022-07-26T11:18:11;20.50;64.50
69595;DHT22;56800;52.142;5.364;2022-07-26T11:20:38;20.50;64.60
69595;DHT22;56800;52.142;5.364;2022-07-26T11:23:30;20.50;64.20
69595;DHT22;56800;52.142;5.364;2022-07-26T11:26:04;20.40;63.70
69595;DHT22;56800;52.142;5.364;2022-07-26T11:29:01;20.40;63.80
69595;DHT22;56800;52.142;5.364;2022-07-26T11:31:50;20.40;64.20
69595;DHT22;56800;52.142;5.364;2022-07-26T11:34:37;20.50;63.70
69595;DHT22;56800;52.142;5.364;2022-07-26T11:37:05;20.50;63.30
69595;DHT22;56800;52.142;5.364;2022-07-26T11:39:33;20.70;63.50
69595;DHT22;56800;52.142;5.364;2022-07-26T11:44:32;20.70;63.00
69595;DHT22;56800;52.142;5.364;2022-07-26T11:47:09;20.70;62.90
69595;DHT22;56800;52.142;5.364;2022-07-26T11:49:35;20.60;62.60
69595;DHT22;56800;52.142;5.364;2022-07-26T11:52:28;20.40;62.40
69595;DHT22;56800;52.142;5.364;2022-07-26T11:54:56;20.30;61.90
69595;DHT22;56800;52.142;5.364;2022-07-26T11:57:30;20.10;62.20
69595;DHT22;56800;52.142;5.364;2022-07-26T11:59:58;20.10;62.10
69595;DHT22;56800;52.142;5.364;2022-07-26T12:02:27;20.10;62.20
69595;DHT22;56800;52.142;5.364;2022-07-26T12:07:52;20.10;62.20
69595;DHT22;56800;52.142;5.364;2022-07-26T12:10:19;20.20;62.50
69595;DHT22;56800;52.142;5.364;2022-07-26T12:12:46;20.30;62.70
69595;DHT22;56800;52.142;5.364;2022-07-26T12:15:13;20.40;62.80
69595;DHT22;56800;52.142;5.364;2022-07-26T12:17:57;20.50;62.70
69595;DHT22;56800;52.142;5.364;2022-07-26T12:20:24;20.70;62.80
69595;DHT22;56800;52.142;5.364;2022-07-26T12:22:58;20.90;62.30
69595;DHT22;56800;52.142;5.364;2022-07-26T12:25:30;21.00;61.10
69595;DHT22;56800;52.142;5.364;2022-07-26T12:27:57;21.10;60.80
69595;DHT22;56800;52.142;5.364;2022-07-26T12:30:24;21.10;60.40
69595;DHT22;56800;52.142;5.364;2022-07-26T12:33:00;21.10;60.20
69595;DHT22;56800;52.142;5.364;2022-07-26T12:35:29;21.10;60.20
69595;DHT22;56800;52.142;5.364;2022-07-26T12:37:59;21.10;59.70
69595;DHT22;56800;52.142;5.364;2022-07-26T12:40:38;21.20;60.20
69595;DHT22;56800;52.142;5.364;2022-07-26T12:43:05;21.20;60.10
69595;DHT22;56800;52.142;5.364;2022-07-26T12:45:33;21.30;59.40
69595;DHT22;56800;52.142;5.364;2022-07-26T12:48:02;21.40;59.40
69595;DHT22;56800;52.142;5.364;2022-07-26T12:50:32;21.50;58.80
69595;DHT22;56800;52.142;5.364;2022-07-26T12:53:03;21.60;58.80
69595;DHT22;56800;52.142;5.364;2022-07-26T12:55:30;21.70;58.90
69595;DHT22;56800;52.142;5.364;2022-07-26T12:57:57;21.70;58.30
69595;DHT22;56800;52.142;5.364;2022-07-26T13:00:25;21.70;58.00
69595;DHT22;56800;52.142;5.364;2022-07-26T13:02:54;21.70;57.10
69595;DHT22;56800;52.142;5.364;2022-07-26T13:05:21;21.70;57.00
69595;DHT22;56800;52.142;5.364;2022-07-26T13:07:48;21.70;56.60
69595;DHT22;56800;52.142;5.364;2022-07-26T13:10:16;21.80;56.20
69595;DHT22;56800;52.142;5.364;2022-07-26T13:13:01;21.90;56.60
69595;DHT22;56800;52.142;5.364;2022-07-26T13:15:28;22.10;55.80
69595;DHT22;56800;52.142;5.364;2022-07-26T13:18:06;22.20;55.50
69595;DHT22;56800;52.142;5.364;2022-07-26T13:20:35;22.40;55.00
69595;DHT22;56800;52.142;5.364;2022-07-26T13:23:02;22.60;55.20
69595;DHT22;56800;52.142;5.364;2022-07-26T13:25:29;22.80;54.60
69595;DHT22;56800;52.142;5.364;2022-07-26T13:28:05;23.00;54.20
69595;DHT22;56800;52.142;5.364;2022-07-26T13:30:32;23.30;53.10
69595;DHT22;56800;52.142;5.364;2022-07-26T13:32:59;23.40;52.30
69595;DHT22;56800;52.142;5.364;2022-07-26T13:35:25;23.30;51.90
69595;DHT22;56800;52.142;5.364;2022-07-26T13:37:52;23.30;51.60
69595;DHT22;56800;52.142;5.364;2022-07-26T13:40:19;23.40;51.50
69595;DHT22;56800;52.142;5.364;2022-07-26T13:42:47;23.30;51.10
69595;DHT22;56800;52.142;5.364;2022-07-26T13:45:15;23.40;51.10
69595;DHT22;56800;52.142;5.364;2022-07-26T13:47:42;23.40;50.70
69595;DHT22;56800;52.142;5.364;2022-07-26T13:50:09;23.60;50.70
69595;DHT22;56800;52.142;5.364;2022-07-26T13:52:36;23.80;50.60
69595;DHT22;56800;52.142;5.364;2022-07-26T13:55:03;24.10;51.30
69595;DHT22;56800;52.142;5.364;2022-07-26T13:57:32;24.40;49.80
69595;DHT22;56800;52.142;5.364;2022-07-26T14:00:18;24.70;49.40
69595;DHT22;56800;52.142;5.364;2022-07-26T14:02:45;24.90;47.80
69595;DHT22;56800;52.142;5.364;2022-07-26T14:05:12;25.00;46.70
69595;DHT22;56800;52.142;5.364;2022-07-26T14:07:38;25.10;46.30
69595;DHT22;56800;52.142;5.364;2022-07-26T14:10:08;25.10;45.90
69595;DHT22;56800;52.142;5.364;2022-07-26T14:12:35;25.00;45.10
69595;DHT22;56800;52.142;5.364;2022-07-26T14:15:04;24.90;46.00
69595;DHT22;56800;52.142;5.364;2022-07-26T14:17:37;24.90;45.80
69595;DHT22;56800;52.142;5.364;2022-07-26T14:20:05;24.90;45.70
69595;DHT22;56800;52.142;5.364;2022-07-26T14:22:32;24.90;45.20
69595;DHT22;56800;52.142;5.364;2022-07-26T14:24:58;24.70;44.40
69595;DHT22;56800;52.142;5.364;2022-07-26T14:27:25;24.50;44.60
69595;DHT22;56800;52.142;5.364;2022-07-26T14:29:52;24.20;45.10
69595;DHT22;56800;52.142;5.364;2022-07-26T14:32:19;24.10;45.70
69595;DHT22;56800;52.142;5.364;2022-07-26T14:34:48;23.90;45.40
69595;DHT22;56800;52.142;5.364;2022-07-26T14:37:15;23.70;45.80
69595;DHT22;56800;52.142;5.364;2022-07-26T14:40:03;23.60;46.50
69595;DHT22;56800;52.142;5.364;2022-07-26T14:42:32;23.50;46.80
69595;DHT22;56800;52.142;5.364;2022-07-26T14:44:59;23.40;46.40
69595;DHT22;56800;52.142;5.364;2022-07-26T14:47:26;23.30;46.80
69595;DHT22;56800;52.142;5.364;2022-07-26T14:49:52;23.20;46.80
69595;DHT22;56800;52.142;5.364;2022-07-26T14:52:19;23.10;46.40
69595;DHT22;56800;52.142;5.364;2022-07-26T14:54:45;23.00;46.80
69595;DHT22;56800;52.142;5.364;2022-07-26T14:57:12;23.00;46.70
69595;DHT22;56800;52.142;5.364;2022-07-26T14:59:56;22.90;46.90
69595;DHT22;56800;52.142;5.364;2022-07-26T15:02:24;23.10;47.70
69595;DHT22;56800;52.142;5.364;2022-07-26T15:04:51;23.20;47.20
69595;DHT22;56800;52.142;5.364;2022-07-26T15:07:18;23.30;46.70
69595;DHT22;56800;52.142;5.364;2022-07-26T15:09:44;23.30;46.70
69595;DHT22;56800;52.142;5.364;2022-07-26T15:12:11;23.30;46.70
69595;DHT22;56800;52.142;5.364;2022-07-26T15:14:38;23.40;47.10
69595;DHT22;56800;52.142;5.364;2022-07-26T15:17:06;23.40;47.00
69595;DHT22;56800;52.142;5.364;2022-07-26T15:19:32;23.50;47.10
69595;DHT22;56800;52.142;5.364;2022-07-26T15:22:00;23.50;46.10
69595;DHT22;56800;52.142;5.364;2022-07-26T15:24:27;23.40;46.30
69595;DHT22;56800;52.142;5.364;2022-07-26T15:26:54;23.20;46.70
69595;DHT22;56800;52.142;5.364;2022-07-26T15:29:21;23.20;47.30
69595;DHT22;56800;52.142;5.364;2022-07-26T15:31:48;23.10;47.10
69595;DHT22;56800;52.142;5.364;2022-07-26T15:34:15;23.00;46.90
69595;DHT22;56800;52.142;5.364;2022-07-26T15:36:42;22.90;47.10
69595;DHT22;56800;52.142;5.364;2022-07-26T15:39:09;22.80;47.40
69595;DHT22;56800;52.142;5.364;2022-07-26T15:41:45;22.70;47.40
69595;DHT22;56800;52.142;5.364;2022-07-26T15:44:14;22.70;47.60
69595;DHT22;56800;52.142;5.364;2022-07-26T15:46:41;22.60;47.70
69595;DHT22;56800;52.142;5.364;2022-07-26T15:49:15;22.60;47.70
69595;DHT22;56800;52.142;5.364;2022-07-26T15:51:43;22.50;47.70
69595;DHT22;56800;52.142;5.364;2022-07-26T15:54:11;22.50;47.60
69595;DHT22;56800;52.142;5.364;2022-07-26T15:56:39;22.40;47.50
69595;DHT22;56800;52.142;5.364;2022-07-26T15:59:06;22.30;47.70
69595;DHT22;56800;52.142;5.364;2022-07-26T16:01:34;22.30;47.70
69595;DHT22;56800;52.142;5.364;2022-07-26T16:04:02;22.20;47.40
69595;DHT22;56800;52.142;5.364;2022-07-26T16:06:33;22.10;47.30
69595;DHT22;56800;52.142;5.364;2022-07-26T16:09:01;22.00;47.10
69595;DHT22;56800;52.142;5.364;2022-07-26T16:11:45;21.90;47.40
69595;DHT22;56800;52.142;5.364;2022-07-26T16:14:12;21.80;47.80
69595;DHT22;56800;52.142;5.364;2022-07-26T16:16:39;21.70;47.90
69595;DHT22;56800;52.142;5.364;2022-07-26T16:19:06;21.70;48.40